Airfield :
LOGIN :

Register | Disclaimer

   EN    FR    IT 

 










Legend :    VFR   Marginal VFR   IFR   Intensive IFR   Very Intensive IFR
Visi :
Ceiling :
>= 8 km
>= 3000ft
5 to 8 km
1000 to 3000 ft
1500m to 5 km
500 to 1000 ft
800 to 1500m
200 to 500 ft
< 800m
< 200 ft
Symbols :   Thunderstorms  Fog  Heavy snow  Heavy precipitations  Wind > 20 kt
SIGMETs :     Misc.  Thunderstorms  Icing  Turbulence  Mountain Waves  Volcanic Ashes






- Airport Elevation : 302 ft


LFPM - Melun Villaroche

CURRENT METAR :
  • 150900Z AUTO 24010KT 9999 BKN012 BKN082 OVC110 13/12 Q1008

EXPIRED METARs :
  • 150830Z AUTO 24009KT 9999 BKN011 BKN033 BKN074 13/12 Q1008
  • 150800Z AUTO 22007KT 9999 FEW007 BKN064 OVC100 13/12 Q1007
  • 150730Z AUTO 19007KT 9999 FEW007 OVC056 13/12 Q1007
  • 150700Z AUTO 20010KT 2700 -RA BR BKN005 OVC009 13/13 Q1007
  • 150630Z AUTO 16006KT 9999 BKN007 BKN012 OVC019 13/13 Q1006

Expired Forecast.
ATIS : +33 1 64 14 28 44



MET'MAP, your aeronautical weather chart ! - Copyright ORBIFLY December 2007 - Disclaimer

ORBIFLY MET'MAP TEAM :

Programming & Development : Alexandra Zaïnal
Concept & Development : Baudouin d'Aumeries
Co-Development & Prog : Marc-Olivier Méhu
Technical & hardware support : Manuel Goepfert

Contact : metmap@orbifly.com




SOURCES & CREDITS :

   NOAA